Hlavní strana
METAR-TAF:

METAR-TAF

Letiště :

Mezinárodní letiště Norman Manley

Kingston, Jamajka

zeměpisná šířka: 17-56N, zeměpisná délka: 076-47W, výška: 3 m

Aktuální stav počasí

Zpráva byla vytvořena před 1 hodinou a 1 minutami, v 01:00 UTC
Jižní vítr 4 kt
Teplota 29°C
Vlhkost vzduchu 70%
Tlak 1011 hPa
Viditelnost 10 km a více
Skoro jasno ve výšce 2200 ft

METAR: MKJP 240100Z 19004KT 9999 FEW022 29/23 Q1011

Čas: 21:01 (02:01 UTC)

Předpověď počasí

Zpráva byla vytvořena před 2 hodinami a 46 minutami, v 23:15 UTC
Předpověď platná od 24 v 00 UTC do 24 v 24 UTC
Severní vítr 5 kt
Viditelnost 10 km a více
Skoro jasno ve výšce 2200 ft
Změna
od 24 v 14 UTC do 24 v 16 UTC
Jihovýchodní vítr 17 kt
Skoro jasno ve výšce 2200 ft, Cumulonimbus.

TAF: MKJP 232315Z 2400/2424 36005KT 9999 FEW022 BECMG 2414/2416 14017KT FEW022CB

Stav a předpovědi počasí z více než 4 000 letišť (zprávy METAR a TAF).

Červené a žluté tečky na mapě představují dostupné meteorologické stanice.

Když kurzor umístíte na tečku, zobrazí se název stanice.

Pak kliknutím zobrazíte stav a předpověď počasí.

Chcete-li změnit mapu, kliknutím na zelené tlačítko se znaménkem +mapu přiblížíte, kliknutím na zelené tlačítko se znaménkem – mapu oddálíte a kliknutím na zelené šipky přejdete na sousední mapy.


METAR-TAF: